首页
METAR-TAF:

METAR-TAF

机场 :

Golden, 不列颠哥伦比亚, 加拿大

纬度: 51-18N, 经度: 116-59W, 海拔: 785米

当前天气观测

该预报发布于5小时和53分钟前的00:00 UTC
风速6节,风向东转东南
温度 14°C
湿度 72%
气压 1005 hPa
能見度: 32.2公里
多云层高于5500英尺, 积雨云.

METAR: CYGE 250000Z 11006KT 20SM BKN055CB 14/09 A2968 RMK CB7 DIST SH ALQDS CB ALQDS LAST STFD OBS/NEXT 251200Z SLP060 DENSITY ALT 3400FT

时间: 23:53 (05:53 UTC)


TAF: 丢失

超过4000个机场的气象观测和天气预报(METAR&TAF报告)。

可查询的气象台以黄色和红色小点在地图上表示。

将鼠标移到小点上方,可查看气象台名称。

然后点击查看天气观测和预报。

如需切换地图:点击带黑十字的绿色按钮放大地图;点击带横线的绿色按钮缩小地图;或者点击绿色箭头查看邻近地区的地图。


METAR-TAF: